createdAt,value
2018-05-31T00:02:16.149Z,19.63
2018-05-31T00:04:43.697Z,19.50
2018-05-31T00:07:11.249Z,19.47
2018-05-31T00:09:38.868Z,19.41
2018-05-31T00:12:06.469Z,19.40
2018-05-31T00:14:33.985Z,19.41
2018-05-31T00:17:01.568Z,19.42
2018-05-31T00:19:29.177Z,19.40
2018-05-31T00:21:56.787Z,19.38
2018-05-31T00:24:24.394Z,19.38
2018-05-31T00:26:51.935Z,19.39
2018-05-31T00:29:19.486Z,19.39
2018-05-31T00:31:47.100Z,19.37
2018-05-31T00:34:14.610Z,19.38
2018-05-31T00:36:42.211Z,19.42
2018-05-31T00:39:09.796Z,19.39
2018-05-31T00:41:37.364Z,19.29
2018-05-31T00:44:04.900Z,19.14
2018-05-31T00:46:32.486Z,19.04
2018-05-31T00:49:00.014Z,19.07
2018-05-31T00:51:27.555Z,19.02
2018-05-31T00:53:55.245Z,18.84
2018-05-31T00:56:22.801Z,18.73
2018-05-31T00:58:50.326Z,18.65
2018-05-31T01:01:17.889Z,18.61
2018-05-31T01:03:45.409Z,18.64
2018-05-31T01:06:12.983Z,18.65
2018-05-31T01:08:40.562Z,18.72
2018-05-31T01:11:08.184Z,18.67
2018-05-31T01:13:35.764Z,18.60
2018-05-31T01:16:03.331Z,18.54
2018-05-31T01:18:30.885Z,18.48
2018-05-31T01:20:58.423Z,18.46
2018-05-31T01:23:26.008Z,18.45
2018-05-31T01:25:53.577Z,18.44
2018-05-31T01:28:21.201Z,18.39
2018-05-31T01:30:48.774Z,18.34
2018-05-31T01:33:16.318Z,18.26
2018-05-31T01:35:43.874Z,18.13
2018-05-31T01:38:23.610Z,18.10
2018-05-31T01:40:51.252Z,18.09
2018-05-31T01:43:18.814Z,18.09
2018-05-31T01:45:46.514Z,18.12
2018-05-31T01:48:14.059Z,17.28
2018-05-31T01:50:41.651Z,18.15
2018-05-31T01:53:09.350Z,18.14
2018-05-31T01:55:36.891Z,18.08
2018-05-31T01:58:04.545Z,18.03
2018-05-31T02:00:32.121Z,18.03
2018-05-31T02:02:59.772Z,18.01
2018-05-31T02:05:27.437Z,17.99
2018-05-31T02:07:55.039Z,17.99
2018-05-31T02:10:22.609Z,17.98
2018-05-31T02:12:50.240Z,17.94
2018-05-31T02:15:17.875Z,17.90
2018-05-31T02:17:45.466Z,17.87
2018-05-31T02:20:13.067Z,17.87
2018-05-31T02:22:40.737Z,17.85
2018-05-31T02:25:08.364Z,17.83
2018-05-31T02:27:35.887Z,17.78
2018-05-31T02:30:03.462Z,17.74
2018-05-31T02:32:31.015Z,17.70
2018-05-31T02:34:58.551Z,17.69
2018-05-31T02:37:26.083Z,17.67
2018-05-31T02:39:53.644Z,17.65
2018-05-31T02:42:21.270Z,17.65
2018-05-31T02:44:49.020Z,17.59
2018-05-31T02:47:16.581Z,17.55
2018-05-31T02:49:44.109Z,17.53
2018-05-31T02:52:11.851Z,17.50
2018-05-31T02:54:39.430Z,17.42
2018-05-31T02:57:07.050Z,17.40
2018-05-31T02:59:34.600Z,17.37
2018-05-31T03:02:02.184Z,17.35
2018-05-31T03:04:29.733Z,17.30
2018-05-31T03:06:57.326Z,17.30
2018-05-31T03:09:24.858Z,17.26
2018-05-31T03:11:52.556Z,17.36
2018-05-31T03:14:20.162Z,17.41
2018-05-31T03:16:48.355Z,17.32
2018-05-31T03:19:15.923Z,17.31
2018-05-31T03:21:43.511Z,17.28
2018-05-31T03:24:12.097Z,17.26
2018-05-31T03:26:39.751Z,17.28
2018-05-31T03:29:07.435Z,17.31
2018-05-31T03:31:34.988Z,17.34
2018-05-31T03:34:02.547Z,17.32
2018-05-31T03:36:30.113Z,17.37
2018-05-31T03:38:57.805Z,17.43
2018-05-31T03:41:25.368Z,17.52
2018-05-31T03:43:52.922Z,17.68
2018-05-31T03:46:20.511Z,17.84
2018-05-31T03:48:48.081Z,17.56
2018-05-31T03:51:15.646Z,17.81
2018-05-31T03:53:43.280Z,17.97
2018-05-31T03:56:10.948Z,18.24
2018-05-31T03:58:38.559Z,18.41
2018-05-31T04:01:06.349Z,18.42
2018-05-31T04:03:33.922Z,18.42
2018-05-31T04:06:01.513Z,18.38
2018-05-31T04:08:29.060Z,18.45
2018-05-31T04:10:56.581Z,18.60
2018-05-31T04:13:24.168Z,18.68
2018-05-31T04:15:51.730Z,18.79
2018-05-31T04:18:19.241Z,18.88
2018-05-31T04:20:46.780Z,18.99
2018-05-31T04:23:14.289Z,19.16
2018-05-31T04:25:41.825Z,19.31
2018-05-31T04:28:09.425Z,19.40
2018-05-31T04:30:36.956Z,19.62
2018-05-31T04:33:04.484Z,19.94
2018-05-31T04:35:32.114Z,20.53
2018-05-31T04:37:59.682Z,21.10
2018-05-31T04:40:27.239Z,21.70
2018-05-31T04:42:54.818Z,22.47
2018-05-31T04:45:22.339Z,23.30
2018-05-31T04:47:49.849Z,23.37
2018-05-31T04:50:17.382Z,24.08
2018-05-31T04:52:44.880Z,24.82
2018-05-31T04:55:12.388Z,25.94
2018-05-31T04:57:39.958Z,26.00
2018-05-31T05:00:07.450Z,26.10
2018-05-31T05:02:34.985Z,27.16
2018-05-31T05:05:02.565Z,26.66
2018-05-31T05:07:30.061Z,27.31
2018-05-31T05:09:57.677Z,27.68
2018-05-31T05:12:25.241Z,28.41
2018-05-31T05:14:52.758Z,28.23
2018-05-31T05:17:21.169Z,28.15
2018-05-31T05:19:48.735Z,28.48
2018-05-31T05:22:16.299Z,29.24
2018-05-31T05:24:43.806Z,29.92
2018-05-31T05:27:11.350Z,30.67
2018-05-31T05:29:38.930Z,31.23
2018-05-31T05:32:06.424Z,32.16
2018-05-31T05:34:33.965Z,32.17
2018-05-31T05:37:01.526Z,32.58
2018-05-31T05:39:29.025Z,32.94
2018-05-31T05:41:56.561Z,33.22
2018-05-31T05:44:24.069Z,33.44
2018-05-31T05:46:51.573Z,33.97
2018-05-31T05:49:19.105Z,34.29
2018-05-31T05:51:46.625Z,33.75
2018-05-31T05:54:14.142Z,33.93
2018-05-31T05:56:41.690Z,33.88
2018-05-31T05:59:09.199Z,33.94
2018-05-31T06:01:36.749Z,33.67
2018-05-31T06:04:04.351Z,33.55
2018-05-31T06:06:31.931Z,34.05
2018-05-31T06:08:59.445Z,34.36
2018-05-31T06:11:26.989Z,34.39
2018-05-31T06:13:54.557Z,34.87
2018-05-31T06:16:22.077Z,35.14
2018-05-31T06:18:49.605Z,34.51
2018-05-31T06:21:17.128Z,34.82
2018-05-31T06:23:44.681Z,33.93
2018-05-31T06:26:12.253Z,34.23
2018-05-31T06:28:39.730Z,34.56
2018-05-31T06:31:07.248Z,34.83
2018-05-31T06:33:34.807Z,35.46
2018-05-31T06:36:02.308Z,35.73
2018-05-31T06:38:29.823Z,34.94
2018-05-31T06:40:57.345Z,35.02
2018-05-31T06:43:24.837Z,34.85
2018-05-31T06:45:52.368Z,35.37
2018-05-31T06:48:19.875Z,34.87
2018-05-31T06:50:47.366Z,35.10
2018-05-31T06:53:14.850Z,35.89
2018-05-31T06:55:42.409Z,36.17
2018-05-31T06:58:09.901Z,37.00
2018-05-31T07:00:37.409Z,37.22
2018-05-31T07:03:04.930Z,37.43
2018-05-31T07:05:32.434Z,38.11
2018-05-31T07:07:59.932Z,38.92
2018-05-31T07:10:27.472Z,39.06
2018-05-31T07:12:54.978Z,39.80
2018-05-31T07:15:22.485Z,40.24
2018-05-31T07:17:50.049Z,39.87
2018-05-31T07:20:17.545Z,39.79
2018-05-31T07:22:45.036Z,39.33
2018-05-31T07:25:12.555Z,39.94
2018-05-31T07:27:40.107Z,40.17
2018-05-31T07:30:07.592Z,40.23
2018-05-31T07:32:35.704Z,40.62
2018-05-31T07:35:03.218Z,40.38
2018-05-31T07:37:30.694Z,40.64
2018-05-31T07:39:58.233Z,39.61
2018-05-31T07:42:25.755Z,39.50
2018-05-31T07:44:53.288Z,39.41
2018-05-31T07:47:20.854Z,40.59
2018-05-31T07:49:48.352Z,39.76
2018-05-31T07:52:15.846Z,40.66
2018-05-31T07:54:43.371Z,39.33
2018-05-31T07:57:10.897Z,39.59
2018-05-31T07:59:38.382Z,40.35
2018-05-31T08:02:05.905Z,40.31
2018-05-31T08:04:33.440Z,40.26
2018-05-31T08:07:00.945Z,41.18
2018-05-31T08:09:28.491Z,41.21
2018-05-31T08:11:56.043Z,40.67
2018-05-31T08:14:23.537Z,40.46
2018-05-31T08:16:51.060Z,40.36
2018-05-31T08:19:18.555Z,40.23
2018-05-31T08:21:46.061Z,38.62
2018-05-31T08:24:13.618Z,39.34
2018-05-31T08:26:41.111Z,40.16
2018-05-31T08:29:08.615Z,37.96
2018-05-31T08:31:36.189Z,37.61
2018-05-31T08:34:03.634Z,39.52
2018-05-31T08:36:31.123Z,41.02
2018-05-31T08:38:58.674Z,41.05
2018-05-31T08:41:26.167Z,41.71
2018-05-31T08:43:53.678Z,42.40
2018-05-31T08:46:21.213Z,43.48
2018-05-31T08:48:48.714Z,41.78
2018-05-31T08:51:16.202Z,41.55
2018-05-31T08:53:43.719Z,42.36
2018-05-31T08:56:11.215Z,40.69
2018-05-31T08:58:38.715Z,40.60
2018-05-31T09:01:06.237Z,40.47
2018-05-31T09:03:33.724Z,40.26
2018-05-31T09:06:01.360Z,40.42
2018-05-31T09:08:29.008Z,41.03
2018-05-31T09:10:56.678Z,41.45
2018-05-31T09:13:24.176Z,39.94
2018-05-31T09:15:51.787Z,38.95
2018-05-31T09:18:19.365Z,40.19
2018-05-31T09:20:46.958Z,40.94
2018-05-31T09:23:14.508Z,40.59
2018-05-31T09:25:42.199Z,39.84
2018-05-31T09:28:09.765Z,39.71
2018-05-31T09:30:37.379Z,40.32
2018-05-31T09:33:05.961Z,40.09
2018-05-31T09:35:33.480Z,40.08
2018-05-31T09:38:01.111Z,39.37
2018-05-31T09:40:28.641Z,39.94
2018-05-31T09:42:56.146Z,40.41
2018-05-31T09:45:23.799Z,41.53
2018-05-31T09:47:51.353Z,41.88
2018-05-31T09:50:18.922Z,41.93
2018-05-31T09:52:46.495Z,41.37
2018-05-31T09:55:14.341Z,38.82
2018-05-31T09:57:41.908Z,38.73
2018-05-31T10:00:09.528Z,37.71
2018-05-31T10:02:37.144Z,38.66
2018-05-31T10:05:04.724Z,39.73
2018-05-31T10:07:32.467Z,37.37
2018-05-31T10:09:59.989Z,36.90
2018-05-31T10:12:27.649Z,37.98
2018-05-31T10:14:55.360Z,38.09
2018-05-31T10:17:22.896Z,37.22
2018-05-31T10:19:50.548Z,38.49
2018-05-31T10:22:18.167Z,37.84
2018-05-31T10:24:46.409Z,39.88
2018-05-31T10:27:14.021Z,40.74
2018-05-31T10:29:41.700Z,39.59
2018-05-31T10:32:09.297Z,37.23
2018-05-31T10:34:37.071Z,37.30
2018-05-31T10:37:04.785Z,37.14
2018-05-31T10:39:33.079Z,39.22
2018-05-31T10:42:00.632Z,38.36
2018-05-31T10:44:28.234Z,39.89
2018-05-31T10:46:55.827Z,39.94
2018-05-31T10:49:23.387Z,37.51
2018-05-31T10:51:51.168Z,38.81
2018-05-31T10:54:18.804Z,37.92
2018-05-31T10:56:46.343Z,38.40
2018-05-31T10:59:13.951Z,36.14
2018-05-31T11:01:41.486Z,38.37
2018-05-31T11:04:09.056Z,39.14
2018-05-31T11:06:36.678Z,39.09
2018-05-31T11:09:04.274Z,36.52
2018-05-31T11:11:31.779Z,36.41
2018-05-31T11:13:59.365Z,35.11
2018-05-31T11:16:26.878Z,35.99
2018-05-31T11:18:54.483Z,35.80
2018-05-31T11:21:22.105Z,35.54
2018-05-31T11:23:49.678Z,35.40
2018-05-31T11:26:17.250Z,34.46
2018-05-31T11:28:44.879Z,34.45
2018-05-31T11:31:12.573Z,34.62
2018-05-31T11:33:40.088Z,32.89
2018-05-31T11:36:07.628Z,32.12
2018-05-31T11:38:35.147Z,32.16
2018-05-31T11:41:02.721Z,32.76
2018-05-31T11:43:30.269Z,33.86
2018-05-31T11:45:57.873Z,34.65
2018-05-31T11:48:25.443Z,34.94
2018-05-31T11:50:53.028Z,32.58
2018-05-31T11:53:20.654Z,31.19
2018-05-31T11:55:48.178Z,30.73
2018-05-31T11:58:15.735Z,30.37
2018-05-31T12:00:43.281Z,30.52
2018-05-31T12:03:10.842Z,30.16
2018-05-31T12:05:39.578Z,30.70
2018-05-31T12:08:07.192Z,30.93
2018-05-31T12:10:34.720Z,31.29
2018-05-31T12:13:02.369Z,30.57
2018-05-31T12:15:29.880Z,30.76
2018-05-31T12:17:58.337Z,30.63
2018-05-31T12:20:26.025Z,30.80
2018-05-31T12:22:53.575Z,30.96
2018-05-31T12:25:21.120Z,31.24
2018-05-31T12:27:48.746Z,31.40
2018-05-31T12:30:16.289Z,31.35
2018-05-31T12:32:43.835Z,31.18
2018-05-31T12:35:11.415Z,31.44
2018-05-31T12:37:38.955Z,30.50
2018-05-31T12:40:06.508Z,30.44
2018-05-31T12:42:34.169Z,30.12
2018-05-31T12:45:01.824Z,30.53
2018-05-31T12:47:30.287Z,30.55
2018-05-31T12:49:57.866Z,30.89
2018-05-31T12:52:25.666Z,30.27
2018-05-31T12:54:53.268Z,30.16
2018-05-31T12:57:20.917Z,30.33
2018-05-31T12:59:48.592Z,30.71
2018-05-31T13:02:16.165Z,30.93
2018-05-31T13:04:43.899Z,30.89
2018-05-31T13:07:11.562Z,31.08
2018-05-31T13:09:39.184Z,31.12
2018-05-31T13:12:06.951Z,31.12
2018-05-31T13:14:34.720Z,31.25
2018-05-31T13:17:02.278Z,31.33
2018-05-31T13:19:29.841Z,31.19
2018-05-31T13:21:57.542Z,31.43
2018-05-31T13:24:25.134Z,31.60
2018-05-31T13:26:52.748Z,31.72
2018-05-31T13:29:20.353Z,31.80
2018-05-31T13:31:47.951Z,31.66
2018-05-31T13:34:16.725Z,31.59
2018-05-31T13:36:44.324Z,31.39
2018-05-31T13:39:11.877Z,30.86
2018-05-31T13:41:39.716Z,30.67
2018-05-31T13:44:07.403Z,30.85
2018-05-31T13:46:34.967Z,30.62
2018-05-31T13:49:02.578Z,30.62
2018-05-31T13:51:30.077Z,30.58
2018-05-31T13:53:57.638Z,30.66
2018-05-31T13:56:25.249Z,30.46
2018-05-31T13:58:52.829Z,30.36
2018-05-31T14:01:21.492Z,30.33
2018-05-31T14:03:49.126Z,30.19
2018-05-31T14:06:16.660Z,30.24
2018-05-31T14:08:44.352Z,30.56
2018-05-31T14:11:11.883Z,30.51
2018-05-31T14:13:40.241Z,30.46
2018-05-31T14:16:07.728Z,30.67
2018-05-31T14:18:35.298Z,30.70
2018-05-31T14:21:02.810Z,30.54
2018-05-31T14:23:30.297Z,30.03
2018-05-31T14:25:57.800Z,29.81
2018-05-31T14:28:25.345Z,29.69
2018-05-31T14:30:52.859Z,29.62
2018-05-31T14:33:20.391Z,29.41
2018-05-31T14:35:47.893Z,29.33
2018-05-31T14:38:15.421Z,29.26
2018-05-31T14:40:42.941Z,29.55
2018-05-31T14:43:10.481Z,29.66
2018-05-31T14:45:37.994Z,29.84
2018-05-31T14:48:05.509Z,30.11
2018-05-31T14:50:33.010Z,30.31
2018-05-31T14:53:00.499Z,30.47
2018-05-31T14:55:28.055Z,30.73
2018-05-31T14:57:55.537Z,30.94
2018-05-31T15:00:23.021Z,30.99
2018-05-31T15:02:50.545Z,31.15
2018-05-31T15:05:18.100Z,31.60
2018-05-31T15:07:45.603Z,31.88
2018-05-31T15:10:13.116Z,31.36
2018-05-31T15:12:40.621Z,31.16
2018-05-31T15:15:08.123Z,31.35
2018-05-31T15:17:35.652Z,31.00
2018-05-31T15:20:03.136Z,31.37
2018-05-31T15:22:30.626Z,31.35
2018-05-31T15:24:58.212Z,31.75
2018-05-31T15:27:25.716Z,32.10
2018-05-31T15:29:53.202Z,32.11
2018-05-31T15:32:20.748Z,32.31
2018-05-31T15:34:48.277Z,31.59
2018-05-31T15:37:15.832Z,31.46
2018-05-31T15:39:43.361Z,31.34
2018-05-31T15:42:10.905Z,31.43
2018-05-31T15:44:38.399Z,31.50
2018-05-31T15:47:05.961Z,31.03
2018-05-31T15:49:33.577Z,31.09
2018-05-31T15:52:01.128Z,31.68
2018-05-31T15:54:28.646Z,31.98
2018-05-31T15:56:56.145Z,32.50
2018-05-31T15:59:23.641Z,32.67
2018-05-31T16:01:51.182Z,32.92
2018-05-31T16:04:18.682Z,33.15
2018-05-31T16:06:46.227Z,32.92
2018-05-31T16:09:13.749Z,33.09
2018-05-31T16:11:41.244Z,33.21
2018-05-31T16:14:08.732Z,32.15
2018-05-31T16:16:36.269Z,32.52
2018-05-31T16:19:03.760Z,32.64
2018-05-31T16:21:31.348Z,31.88
2018-05-31T16:23:58.869Z,31.71
2018-05-31T16:26:26.375Z,31.95
2018-05-31T16:28:53.882Z,31.60
2018-05-31T16:31:21.392Z,31.08
2018-05-31T16:33:48.902Z,30.63
2018-05-31T16:36:16.467Z,30.20
2018-05-31T16:38:43.992Z,29.91
2018-05-31T16:41:11.496Z,29.69
2018-05-31T16:43:39.007Z,29.59
2018-05-31T16:46:06.531Z,29.53
2018-05-31T16:48:34.037Z,29.50
2018-05-31T16:51:01.548Z,29.33
2018-05-31T16:53:29.079Z,29.22
2018-05-31T16:55:56.571Z,29.14
2018-05-31T16:58:24.070Z,29.00
2018-05-31T17:00:51.597Z,28.99
2018-05-31T17:03:19.100Z,28.98
2018-05-31T17:05:46.600Z,28.94
2018-05-31T17:08:14.126Z,28.83
2018-05-31T17:10:41.629Z,28.77
2018-05-31T17:13:09.125Z,28.63
2018-05-31T17:15:36.659Z,28.59
2018-05-31T17:18:04.150Z,28.49
2018-05-31T17:20:31.632Z,28.37
2018-05-31T17:22:59.154Z,28.24
2018-05-31T17:25:26.643Z,28.13
2018-05-31T17:27:54.138Z,28.02
2018-05-31T17:30:21.693Z,27.91
2018-05-31T17:32:49.177Z,27.86
2018-05-31T17:35:16.668Z,27.81
2018-05-31T17:37:44.181Z,27.77
2018-05-31T17:40:11.678Z,27.79
2018-05-31T17:42:39.168Z,27.75
2018-05-31T17:45:06.696Z,27.68
2018-05-31T17:47:34.190Z,27.63
2018-05-31T17:50:01.722Z,27.59
2018-05-31T17:52:29.229Z,27.54
2018-05-31T17:54:56.725Z,27.48
2018-05-31T17:57:24.229Z,27.43
2018-05-31T17:59:51.748Z,27.42
2018-05-31T18:05:09.780Z,27.23
2018-05-31T18:07:37.268Z,26.87
2018-05-31T18:10:04.763Z,26.16
2018-05-31T18:12:32.269Z,25.58
2018-05-31T18:15:00.599Z,25.51
2018-05-31T18:17:28.115Z,25.25
2018-05-31T18:19:55.613Z,24.88
2018-05-31T18:22:23.139Z,23.84
2018-05-31T18:24:50.654Z,23.29
2018-05-31T18:27:18.182Z,22.39
2018-05-31T18:29:45.680Z,21.13
2018-05-31T18:32:13.933Z,-142.09
2018-05-31T18:34:41.498Z,-142.09
2018-05-31T18:37:09.164Z,-142.09
2018-05-31T18:39:36.670Z,-142.09
2018-05-31T18:42:04.230Z,-142.09
2018-05-31T18:44:31.748Z,-142.09
2018-05-31T18:46:59.286Z,-142.09
2018-05-31T18:49:26.807Z,-142.09
2018-05-31T18:51:54.359Z,-142.09
2018-05-31T18:54:21.882Z,-142.09
2018-05-31T18:56:49.459Z,-142.09
2018-05-31T18:59:16.979Z,-142.09
2018-05-31T19:01:44.548Z,-142.09
2018-05-31T19:04:12.136Z,-142.09
2018-05-31T19:06:39.643Z,-142.09
2018-05-31T19:09:07.188Z,-142.09
2018-05-31T19:11:34.699Z,-142.09
2018-05-31T19:14:02.225Z,-142.09
2018-05-31T19:16:30.468Z,-142.09
2018-05-31T19:19:03.629Z,-142.09
2018-05-31T19:21:31.150Z,-142.09
2018-05-31T19:24:04.417Z,-142.09
2018-05-31T19:26:31.921Z,-142.09
2018-05-31T19:28:59.469Z,-142.09
2018-05-31T19:31:27.003Z,-142.09
2018-05-31T19:33:54.550Z,-142.09
2018-05-31T19:36:27.724Z,-142.09
2018-05-31T19:38:55.282Z,-142.09
2018-05-31T19:41:22.806Z,-142.09
2018-05-31T19:43:56.011Z,-142.09
2018-05-31T19:46:23.534Z,-142.09
2018-05-31T19:48:51.125Z,-142.09
2018-05-31T19:51:24.397Z,-142.09
2018-05-31T19:53:51.934Z,-142.09
2018-05-31T19:56:19.453Z,-142.09
2018-05-31T19:58:52.513Z,-142.09
2018-05-31T20:01:25.534Z,-142.09
2018-05-31T20:03:53.121Z,-142.09
2018-05-31T20:06:20.636Z,-142.09
2018-05-31T20:08:48.142Z,-142.09
2018-05-31T20:11:15.734Z,-142.09
2018-05-31T20:13:43.254Z,-142.09
2018-05-31T20:16:10.810Z,-142.09
2018-05-31T20:18:38.312Z,-142.09
2018-05-31T20:21:05.849Z,-142.09
2018-05-31T20:23:33.381Z,-142.09
2018-05-31T20:26:00.919Z,-142.09
2018-05-31T20:28:28.471Z,-142.09
2018-05-31T20:30:56.023Z,-142.09
2018-05-31T20:33:23.736Z,-142.09
2018-05-31T20:35:51.493Z,-142.09
2018-05-31T20:38:19.027Z,-142.09
2018-05-31T20:40:46.607Z,-142.09
2018-05-31T20:43:14.127Z,-142.09
2018-05-31T20:45:41.658Z,-142.09
2018-05-31T20:48:09.191Z,-142.09
2018-05-31T20:50:40.422Z,-142.09
2018-05-31T20:53:07.993Z,-142.09
2018-05-31T20:55:35.575Z,-142.09
2018-05-31T20:58:03.113Z,-142.09
2018-05-31T21:00:30.757Z,-142.09
2018-05-31T21:02:58.315Z,-142.09
2018-05-31T21:05:25.905Z,-142.09
2018-05-31T21:07:53.454Z,-142.09
2018-05-31T21:10:20.968Z,-142.09
2018-05-31T21:12:48.547Z,-142.09
2018-05-31T21:15:16.913Z,-142.09
2018-05-31T21:17:44.450Z,-142.09
2018-05-31T21:20:11.999Z,-142.09
2018-05-31T21:22:39.547Z,-142.09
2018-05-31T21:25:07.094Z,-142.09
2018-05-31T21:27:34.645Z,-142.09
2018-05-31T21:30:02.239Z,-142.09
2018-05-31T21:32:29.786Z,-142.09
2018-05-31T21:34:57.348Z,-142.09
2018-05-31T21:37:24.910Z,-142.09
2018-05-31T21:39:52.434Z,-142.09
2018-05-31T21:42:20.039Z,-142.09
2018-05-31T21:44:47.578Z,-142.09
2018-05-31T21:47:15.102Z,-142.09
2018-05-31T21:49:42.673Z,-142.09
2018-05-31T21:52:10.233Z,-142.09
2018-05-31T21:54:37.801Z,-142.09
2018-05-31T21:57:05.326Z,-142.09
2018-05-31T21:59:32.899Z,-142.09
2018-05-31T22:02:00.436Z,-142.09
2018-05-31T22:04:28.075Z,-142.09
2018-05-31T22:06:55.622Z,-142.09
2018-05-31T22:09:23.170Z,-142.09
2018-05-31T22:11:50.695Z,-142.09
2018-05-31T22:14:18.275Z,-142.09
2018-05-31T22:16:45.846Z,-142.09
2018-05-31T22:19:13.459Z,-142.09
2018-05-31T22:21:40.945Z,-142.09
2018-05-31T22:24:08.513Z,-142.09
2018-05-31T22:26:36.060Z,-142.09
2018-05-31T22:29:03.636Z,-142.09
2018-05-31T22:31:31.182Z,-142.09
2018-05-31T22:33:58.782Z,-142.09
2018-05-31T22:36:26.315Z,-142.09
2018-05-31T22:38:53.888Z,-142.09
2018-05-31T22:41:21.425Z,-142.09
2018-05-31T22:43:48.949Z,-142.09
2018-05-31T22:46:16.507Z,-142.09
2018-05-31T22:48:44.034Z,-142.09
2018-05-31T22:51:11.581Z,-142.09
2018-05-31T22:53:39.102Z,-142.09
2018-05-31T22:56:06.648Z,-142.09
2018-05-31T22:58:34.178Z,-142.09
2018-05-31T23:01:01.756Z,-142.09
2018-05-31T23:03:29.266Z,-142.09
2018-05-31T23:05:56.834Z,-142.09
2018-05-31T23:08:24.357Z,-142.09
2018-05-31T23:10:51.919Z,-142.09
2018-05-31T23:13:19.465Z,-142.09
2018-05-31T23:15:47.025Z,-142.09
2018-05-31T23:18:15.105Z,-142.09
2018-05-31T23:20:42.678Z,-142.09
2018-05-31T23:23:10.194Z,-142.09
2018-05-31T23:25:37.736Z,-142.09
2018-05-31T23:28:05.281Z,-142.09
2018-05-31T23:30:32.833Z,-142.09
2018-05-31T23:33:01.219Z,-142.09
2018-05-31T23:35:28.789Z,-142.09
2018-05-31T23:37:56.342Z,-142.09
2018-05-31T23:40:23.862Z,-142.09
2018-05-31T23:42:51.418Z,-142.09
2018-05-31T23:45:18.969Z,-142.09
2018-05-31T23:47:46.532Z,-142.09
2018-05-31T23:50:14.070Z,-142.09
2018-05-31T23:52:41.625Z,-142.09
2018-05-31T23:55:09.186Z,-142.09
2018-05-31T23:57:36.781Z,-142.09
